Terminal Aerodrome Forecast
Issued by NWS

Home | Current Version | Previous Version | Text Only | Print | Product List | Glossary On
Versions: 1 2 3 4 5 6 7 8 9 10 11 12 13
000
FTUS42 TJSJ 260532
TAFJPS
TAF
TJPS 260532Z 2606/2706 09005KT P6SM FEW030
     FM261300 14014KT P6SM FEW030 SCT060
     FM262230 10008KT P6SM FEW030 FEW060
      AMD NOT SKED 2611/2703=

USA.gov is the U.S. government's official web portal to all federal, state and local government web resources and services.